sensor_id;sensor_type;location;lat;lon;timestamp;P1;P2;P0
69349;PMS5003;64554;43.452;4.934;2022-11-03T00:01:42;14.00;12.00;9.00
69349;PMS5003;64554;43.452;4.934;2022-11-03T00:04:12;17.60;14.00;10.00
69349;PMS5003;64554;43.452;4.934;2022-11-03T00:06:40;15.00;12.75;8.00
69349;PMS5003;64554;43.452;4.934;2022-11-03T00:09:08;18.00;17.00;10.00
69349;PMS5003;64554;43.452;4.934;2022-11-03T00:11:35;14.75;13.00;8.00
69349;PMS5003;64554;43.452;4.934;2022-11-03T00:14:02;13.60;13.60;11.00
69349;PMS5003;64554;43.452;4.934;2022-11-03T00:16:29;13.00;13.00;8.50
69349;PMS5003;64554;43.452;4.934;2022-11-03T00:18:55;22.40;20.60;9.20
69349;PMS5003;64554;43.452;4.934;2022-11-03T00:21:22;15.00;15.00;10.60
69349;PMS5003;64554;43.452;4.934;2022-11-03T00:23:49;18.60;15.80;8.60
69349;PMS5003;64554;43.452;4.934;2022-11-03T00:26:16;14.00;14.00;9.00
69349;PMS5003;64554;43.452;4.934;2022-11-03T00:28:44;15.00;15.00;9.00
69349;PMS5003;64554;43.452;4.934;2022-11-03T00:31:14;14.00;13.00;9.00
69349;PMS5003;64554;43.452;4.934;2022-11-03T00:33:42;13.00;13.00;10.00
69349;PMS5003;64554;43.452;4.934;2022-11-03T00:36:09;18.75;16.75;10.00
69349;PMS5003;64554;43.452;4.934;2022-11-03T00:38:36;16.00;13.75;9.00
69349;PMS5003;64554;43.452;4.934;2022-11-03T00:41:03;14.25;14.25;8.50
69349;PMS5003;64554;43.452;4.934;2022-11-03T00:43:30;14.80;13.20;9.20
69349;PMS5003;64554;43.452;4.934;2022-11-03T00:45:57;18.50;16.00;10.50
69349;PMS5003;64554;43.452;4.934;2022-11-03T00:48:24;14.20;13.20;10.20
69349;PMS5003;64554;43.452;4.934;2022-11-03T00:53:33;21.00;19.00;11.60
69349;PMS5003;64554;43.452;4.934;2022-11-03T00:56:00;18.80;17.40;13.00
69349;PMS5003;64554;43.452;4.934;2022-11-03T00:58:27;20.00;17.50;11.25
69349;PMS5003;64554;43.452;4.934;2022-11-03T01:01:01;24.00;23.00;13.50
69349;PMS5003;64554;43.452;4.934;2022-11-03T01:03:28;18.40;17.40;13.40
69349;PMS5003;64554;43.452;4.934;2022-11-03T01:05:54;22.00;21.00;14.50
69349;PMS5003;64554;43.452;4.934;2022-11-03T01:08:39;21.80;19.60;14.00
69349;PMS5003;64554;43.452;4.934;2022-11-03T01:11:07;24.00;22.40;15.60
69349;PMS5003;64554;43.452;4.934;2022-11-03T01:13:52;22.67;22.67;13.67
69349;PMS5003;64554;43.452;4.934;2022-11-03T01:16:19;20.50;19.00;14.00
69349;PMS5003;64554;43.452;4.934;2022-11-03T01:18:45;17.00;16.25;10.50
69349;PMS5003;64554;43.452;4.934;2022-11-03T01:21:11;22.40;18.00;12.00
69349;PMS5003;64554;43.452;4.934;2022-11-03T01:23:38;20.00;18.00;12.75
69349;PMS5003;64554;43.452;4.934;2022-11-03T01:26:05;20.00;19.00;13.00
69349;PMS5003;64554;43.452;4.934;2022-11-03T01:28:32;25.20;20.00;13.20
69349;PMS5003;64554;43.452;4.934;2022-11-03T01:31:06;24.20;18.80;12.00
69349;PMS5003;64554;43.452;4.934;2022-11-03T01:33:32;20.00;19.00;13.00
69349;PMS5003;64554;43.452;4.934;2022-11-03T01:35:59;22.20;21.60;13.00
69349;PMS5003;64554;43.452;4.934;2022-11-03T01:38:26;19.00;16.00;11.00
69349;PMS5003;64554;43.452;4.934;2022-11-03T01:40:52;15.20;15.20;11.00
69349;PMS5003;64554;43.452;4.934;2022-11-03T01:43:20;16.00;16.00;11.00
69349;PMS5003;64554;43.452;4.934;2022-11-03T01:45:48;23.60;22.60;13.00
69349;PMS5003;64554;43.452;4.934;2022-11-03T01:48:16;24.00;22.50;11.50
69349;PMS5003;64554;43.452;4.934;2022-11-03T01:50:43;23.50;21.75;16.00
69349;PMS5003;64554;43.452;4.934;2022-11-03T01:53:12;21.00;18.00;12.00
69349;PMS5003;64554;43.452;4.934;2022-11-03T01:55:40;20.20;19.80;11.80
69349;PMS5003;64554;43.452;4.934;2022-11-03T01:58:14;17.00;16.00;11.00
69349;PMS5003;64554;43.452;4.934;2022-11-03T02:00:42;21.00;17.50;12.00
69349;PMS5003;64554;43.452;4.934;2022-11-03T02:03:10;19.40;18.00;13.00
69349;PMS5003;64554;43.452;4.934;2022-11-03T02:05:37;19.00;18.00;12.50
69349;PMS5003;64554;43.452;4.934;2022-11-03T02:08:50;17.00;14.40;10.00
69349;PMS5003;64554;43.452;4.934;2022-11-03T02:10:55;18.50;18.25;12.00
69349;PMS5003;64554;43.452;4.934;2022-11-03T02:13:23;16.80;16.40;11.40
69349;PMS5003;64554;43.452;4.934;2022-11-03T02:15:54;20.40;17.80;11.40
69349;PMS5003;64554;43.452;4.934;2022-11-03T02:18:23;17.40;17.40;10.40
69349;PMS5003;64554;43.452;4.934;2022-11-03T02:21:01;21.00;20.67;12.00
69349;PMS5003;64554;43.452;4.934;2022-11-03T02:26:19;14.40;14.40;10.20
69349;PMS5003;64554;43.452;4.934;2022-11-03T02:28:46;17.00;17.00;11.00
69349;PMS5003;64554;43.452;4.934;2022-11-03T02:36:28;11.60;11.00;8.00
69349;PMS5003;64554;43.452;4.934;2022-11-03T02:38:59;14.20;13.60;9.20
69349;PMS5003;64554;43.452;4.934;2022-11-03T02:41:28;15.75;15.75;10.75
69349;PMS5003;64554;43.452;4.934;2022-11-03T02:43:55;13.75;13.50;10.00
69349;PMS5003;64554;43.452;4.934;2022-11-03T02:46:23;15.20;12.80;10.80
69349;PMS5003;64554;43.452;4.934;2022-11-03T02:48:51;16.80;14.40;10.00
69349;PMS5003;64554;43.452;4.934;2022-11-03T02:51:17;18.00;15.00;9.00
69349;PMS5003;64554;43.452;4.934;2022-11-03T02:53:55;15.50;14.00;9.00
69349;PMS5003;64554;43.452;4.934;2022-11-03T02:56:24;15.20;14.00;8.80
69349;PMS5003;64554;43.452;4.934;2022-11-03T02:58:53;14.40;14.40;6.60
69349;PMS5003;64554;43.452;4.934;2022-11-03T03:04:00;14.00;14.00;10.00
69349;PMS5003;64554;43.452;4.934;2022-11-03T03:06:38;14.00;14.00;8.40
69349;PMS5003;64554;43.452;4.934;2022-11-03T03:09:10;11.40;11.40;7.80
69349;PMS5003;64554;43.452;4.934;2022-11-03T03:11:40;10.50;10.50;7.50
69349;PMS5003;64554;43.452;4.934;2022-11-03T03:14:10;15.00;13.60;9.40
69349;PMS5003;64554;43.452;4.934;2022-11-03T03:16:47;14.60;14.60;8.40
69349;PMS5003;64554;43.452;4.934;2022-11-03T03:19:23;21.00;16.40;7.40
69349;PMS5003;64554;43.452;4.934;2022-11-03T03:21:54;14.50;11.25;8.00
69349;PMS5003;64554;43.452;4.934;2022-11-03T03:24:25;12.00;12.00;9.33
69349;PMS5003;64554;43.452;4.934;2022-11-03T03:26:54;13.60;13.60;9.60
69349;PMS5003;64554;43.452;4.934;2022-11-03T03:29:38;13.50;11.75;7.50
69349;PMS5003;64554;43.452;4.934;2022-11-03T03:32:06;12.00;11.00;9.00
69349;PMS5003;64554;43.452;4.934;2022-11-03T03:34:34;17.25;13.00;9.00
69349;PMS5003;64554;43.452;4.934;2022-11-03T03:37:02;12.00;11.40;8.00
69349;PMS5003;64554;43.452;4.934;2022-11-03T03:39:31;15.00;13.00;10.00
69349;PMS5003;64554;43.452;4.934;2022-11-03T03:41:59;16.00;15.00;7.50
69349;PMS5003;64554;43.452;4.934;2022-11-03T03:44:27;13.40;13.40;9.40
69349;PMS5003;64554;43.452;4.934;2022-11-03T03:47:02;12.00;12.00;8.60
69349;PMS5003;64554;43.452;4.934;2022-11-03T03:49:31;13.00;13.00;9.00
69349;PMS5003;64554;43.452;4.934;2022-11-03T03:51:57;19.40;15.40;7.60
69349;PMS5003;64554;43.452;4.934;2022-11-03T03:54:24;12.00;11.00;8.00
69349;PMS5003;64554;43.452;4.934;2022-11-03T03:56:52;14.40;12.00;8.00
69349;PMS5003;64554;43.452;4.934;2022-11-03T03:59:21;8.60;8.40;6.00
69349;PMS5003;64554;43.452;4.934;2022-11-03T04:01:47;11.25;11.25;7.25
69349;PMS5003;64554;43.452;4.934;2022-11-03T04:04:14;13.50;11.50;6.25
69349;PMS5003;64554;43.452;4.934;2022-11-03T04:06:40;11.00;10.75;8.25
69349;PMS5003;64554;43.452;4.934;2022-11-03T04:09:07;13.60;12.00;7.00
69349;PMS5003;64554;43.452;4.934;2022-11-03T04:11:34;12.00;11.00;8.00
69349;PMS5003;64554;43.452;4.934;2022-11-03T04:14:19;10.40;10.40;6.20
69349;PMS5003;64554;43.452;4.934;2022-11-03T04:17:06;12.00;12.00;7.00
69349;PMS5003;64554;43.452;4.934;2022-11-03T04:20:00;8.00;8.00;5.40
69349;PMS5003;64554;43.452;4.934;2022-11-03T04:22:45;10.50;9.00;6.50
69349;PMS5003;64554;43.452;4.934;2022-11-03T04:25:11;10.00;8.60;6.00
69349;PMS5003;64554;43.452;4.934;2022-11-03T04:27:38;11.00;9.00;6.00
69349;PMS5003;64554;43.452;4.934;2022-11-03T04:30:16;10.00;10.00;7.00
69349;PMS5003;64554;43.452;4.934;2022-11-03T04:32:43;10.60;10.60;6.60
69349;PMS5003;64554;43.452;4.934;2022-11-03T04:35:31;14.20;13.80;7.20
69349;PMS5003;64554;43.452;4.934;2022-11-03T04:38:00;14.00;10.00;8.00
69349;PMS5003;64554;43.452;4.934;2022-11-03T04:40:27;13.50;10.50;7.00
69349;PMS5003;64554;43.452;4.934;2022-11-03T04:42:54;14.00;14.00;7.00
69349;PMS5003;64554;43.452;4.934;2022-11-03T04:45:22;11.00;8.25;5.25
69349;PMS5003;64554;43.452;4.934;2022-11-03T04:47:49;13.60;11.60;7.60
69349;PMS5003;64554;43.452;4.934;2022-11-03T04:50:17;9.50;9.50;7.00
69349;PMS5003;64554;43.452;4.934;2022-11-03T04:52:45;11.75;11.75;7.00
69349;PMS5003;64554;43.452;4.934;2022-11-03T04:55:13;12.60;9.00;6.60
69349;PMS5003;64554;43.452;4.934;2022-11-03T04:57:40;9.00;9.00;5.50
69349;PMS5003;64554;43.452;4.934;2022-11-03T05:00:12;8.80;8.20;5.80
69349;PMS5003;64554;43.452;4.934;2022-11-03T05:02:39;10.50;8.50;5.00
69349;PMS5003;64554;43.452;4.934;2022-11-03T05:05:19;9.60;8.00;6.00
69349;PMS5003;64554;43.452;4.934;2022-11-03T05:07:46;11.00;8.75;5.75
69349;PMS5003;64554;43.452;4.934;2022-11-03T05:10:14;10.00;8.50;6.00
69349;PMS5003;64554;43.452;4.934;2022-11-03T05:12:41;9.20;8.20;5.40
69349;PMS5003;64554;43.452;4.934;2022-11-03T05:15:20;9.75;8.75;6.00
69349;PMS5003;64554;43.452;4.934;2022-11-03T05:17:48;7.60;7.60;5.00
69349;PMS5003;64554;43.452;4.934;2022-11-03T05:20:25;8.25;8.25;4.75
69349;PMS5003;64554;43.452;4.934;2022-11-03T05:23:01;7.50;7.50;6.00
69349;PMS5003;64554;43.452;4.934;2022-11-03T05:25:33;5.00;5.00;4.40
69349;PMS5003;64554;43.452;4.934;2022-11-03T05:28:00;7.80;7.80;5.00
69349;PMS5003;64554;43.452;4.934;2022-11-03T05:30:27;7.00;4.60;3.60
69349;PMS5003;64554;43.452;4.934;2022-11-03T05:32:54;7.00;4.00;3.00
69349;PMS5003;64554;43.452;4.934;2022-11-03T05:35:21;8.75;7.00;4.50
69349;PMS5003;64554;43.452;4.934;2022-11-03T05:37:48;6.00;6.00;4.00
69349;PMS5003;64554;43.452;4.934;2022-11-03T05:40:22;5.75;5.75;4.00
69349;PMS5003;64554;43.452;4.934;2022-11-03T05:42:53;5.80;5.40;3.40
69349;PMS5003;64554;43.452;4.934;2022-11-03T05:47:56;5.00;5.00;3.00
69349;PMS5003;64554;43.452;4.934;2022-11-03T05:50:24;7.40;7.40;4.60
69349;PMS5003;64554;43.452;4.934;2022-11-03T05:52:52;6.00;6.00;4.00
69349;PMS5003;64554;43.452;4.934;2022-11-03T05:55:23;10.20;9.00;4.00
69349;PMS5003;64554;43.452;4.934;2022-11-03T05:57:52;9.00;7.00;5.00
69349;PMS5003;64554;43.452;4.934;2022-11-03T06:00:30;5.75;5.75;4.50
69349;PMS5003;64554;43.452;4.934;2022-11-03T06:02:57;8.40;7.40;4.40
69349;PMS5003;64554;43.452;4.934;2022-11-03T06:05:24;7.40;6.40;5.00
69349;PMS5003;64554;43.452;4.934;2022-11-03T06:07:52;10.00;7.50;5.00
69349;PMS5003;64554;43.452;4.934;2022-11-03T06:10:24;5.50;4.75;4.00
69349;PMS5003;64554;43.452;4.934;2022-11-03T06:12:52;11.00;9.00;6.25
69349;PMS5003;64554;43.452;4.934;2022-11-03T06:15:32;7.00;7.00;5.00
69349;PMS5003;64554;43.452;4.934;2022-11-03T06:18:00;8.75;7.00;6.00
69349;PMS5003;64554;43.452;4.934;2022-11-03T06:20:28;5.60;5.60;3.40
69349;PMS5003;64554;43.452;4.934;2022-11-03T06:22:54;7.25;5.75;4.00
69349;PMS5003;64554;43.452;4.934;2022-11-03T06:25:29;6.25;5.50;3.50
69349;PMS5003;64554;43.452;4.934;2022-11-03T06:28:01;7.00;5.80;4.20
69349;PMS5003;64554;43.452;4.934;2022-11-03T06:30:28;8.80;6.00;4.00
69349;PMS5003;64554;43.452;4.934;2022-11-03T06:33:00;5.00;5.00;3.00
69349;PMS5003;64554;43.452;4.934;2022-11-03T06:35:27;8.33;5.00;4.00
69349;PMS5003;64554;43.452;4.934;2022-11-03T06:37:54;6.00;4.25;3.00
69349;PMS5003;64554;43.452;4.934;2022-11-03T06:42:51;10.00;7.00;5.00
69349;PMS5003;64554;43.452;4.934;2022-11-03T06:47:47;4.80;4.80;2.80
69349;PMS5003;64554;43.452;4.934;2022-11-03T06:50:21;8.00;6.00;3.00
69349;PMS5003;64554;43.452;4.934;2022-11-03T06:52:49;5.75;5.75;3.50
69349;PMS5003;64554;43.452;4.934;2022-11-03T06:55:27;5.00;5.00;2.50
69349;PMS5003;64554;43.452;4.934;2022-11-03T06:57:56;4.60;4.60;3.60
69349;PMS5003;64554;43.452;4.934;2022-11-03T07:00:25;5.00;5.00;3.00
69349;PMS5003;64554;43.452;4.934;2022-11-03T07:05:43;5.00;5.00;2.00
69349;PMS5003;64554;43.452;4.934;2022-11-03T07:10:42;7.00;7.00;4.00
69349;PMS5003;64554;43.452;4.934;2022-11-03T07:13:12;5.00;5.00;4.00
69349;PMS5003;64554;43.452;4.934;2022-11-03T07:15:39;6.20;4.00;2.80
69349;PMS5003;64554;43.452;4.934;2022-11-03T07:18:13;4.50;4.50;3.50
69349;PMS5003;64554;43.452;4.934;2022-11-03T07:20:42;6.50;6.50;4.00
69349;PMS5003;64554;43.452;4.934;2022-11-03T07:23:09;5.00;5.00;3.00
69349;PMS5003;64554;43.452;4.934;2022-11-03T07:25:38;8.60;7.00;5.00
69349;PMS5003;64554;43.452;4.934;2022-11-03T07:28:04;4.00;4.00;3.00
69349;PMS5003;64554;43.452;4.934;2022-11-03T07:30:34;6.00;6.00;4.00
69349;PMS5003;64554;43.452;4.934;2022-11-03T07:33:08;7.00;5.00;4.00
69349;PMS5003;64554;43.452;4.934;2022-11-03T07:35:36;4.60;4.60;3.00
69349;PMS5003;64554;43.452;4.934;2022-11-03T07:38:26;7.40;6.40;4.60
69349;PMS5003;64554;43.452;4.934;2022-11-03T07:40:54;7.00;6.00;4.00
69349;PMS5003;64554;43.452;4.934;2022-11-03T07:43:23;5.20;5.20;3.00
69349;PMS5003;64554;43.452;4.934;2022-11-03T07:45:51;6.00;5.80;4.80
69349;PMS5003;64554;43.452;4.934;2022-11-03T07:48:38;7.00;5.00;4.00
69349;PMS5003;64554;43.452;4.934;2022-11-03T07:53:46;4.60;4.60;2.60
69349;PMS5003;64554;43.452;4.934;2022-11-03T07:56:26;5.40;4.40;3.00
69349;PMS5003;64554;43.452;4.934;2022-11-03T07:58:54;7.00;5.80;3.00
69349;PMS5003;64554;43.452;4.934;2022-11-03T08:01:27;6.40;5.00;3.00
69349;PMS5003;64554;43.452;4.934;2022-11-03T08:03:56;9.00;7.50;5.00
69349;PMS5003;64554;43.452;4.934;2022-11-03T08:06:23;9.60;9.60;3.60
69349;PMS5003;64554;43.452;4.934;2022-11-03T08:08:50;6.20;6.20;3.60
69349;PMS5003;64554;43.452;4.934;2022-11-03T08:11:16;7.00;7.00;4.00
69349;PMS5003;64554;43.452;4.934;2022-11-03T08:13:43;4.00;4.00;3.00
69349;PMS5003;64554;43.452;4.934;2022-11-03T08:16:09;4.25;4.25;2.25
69349;PMS5003;64554;43.452;4.934;2022-11-03T08:18:36;6.00;6.00;4.20
69349;PMS5003;64554;43.452;4.934;2022-11-03T08:21:02;5.50;4.50;2.50
69349;PMS5003;64554;43.452;4.934;2022-11-03T08:23:29;10.75;8.75;4.00
69349;PMS5003;64554;43.452;4.934;2022-11-03T08:25:56;7.00;7.00;4.60
69349;PMS5003;64554;43.452;4.934;2022-11-03T08:28:23;7.00;7.00;3.00
69349;PMS5003;64554;43.452;4.934;2022-11-03T08:30:49;6.00;6.00;4.00
69349;PMS5003;64554;43.452;4.934;2022-11-03T08:33:16;7.00;7.00;5.00
69349;PMS5003;64554;43.452;4.934;2022-11-03T08:35:42;6.00;6.00;4.00
69349;PMS5003;64554;43.452;4.934;2022-11-03T08:38:09;7.40;7.40;6.00
69349;PMS5003;64554;43.452;4.934;2022-11-03T08:40:35;5.00;5.00;3.20
69349;PMS5003;64554;43.452;4.934;2022-11-03T08:43:02;12.00;10.25;4.00
69349;PMS5003;64554;43.452;4.934;2022-11-03T08:45:29;5.40;5.40;4.00
69349;PMS5003;64554;43.452;4.934;2022-11-03T08:47:55;8.00;8.00;3.00
69349;PMS5003;64554;43.452;4.934;2022-11-03T08:50:22;10.00;6.00;5.00
69349;PMS5003;64554;43.452;4.934;2022-11-03T08:52:49;5.40;4.00;3.00
69349;PMS5003;64554;43.452;4.934;2022-11-03T08:55:15;5.60;5.60;3.60
69349;PMS5003;64554;43.452;4.934;2022-11-03T08:57:50;6.00;6.00;4.00
69349;PMS5003;64554;43.452;4.934;2022-11-03T09:00:19;6.20;5.80;4.00
69349;PMS5003;64554;43.452;4.934;2022-11-03T09:02:45;5.60;5.60;4.00
69349;PMS5003;64554;43.452;4.934;2022-11-03T09:05:12;6.00;6.00;2.50
69349;PMS5003;64554;43.452;4.934;2022-11-03T09:07:39;5.60;5.60;4.20
69349;PMS5003;64554;43.452;4.934;2022-11-03T09:10:25;4.60;4.60;3.00
69349;PMS5003;64554;43.452;4.934;2022-11-03T09:13:00;6.20;6.20;4.00
69349;PMS5003;64554;43.452;4.934;2022-11-03T09:15:27;5.20;5.20;4.00
69349;PMS5003;64554;43.452;4.934;2022-11-03T09:17:54;3.40;3.40;2.00
69349;PMS5003;64554;43.452;4.934;2022-11-03T09:20:20;3.00;3.00;2.00
69349;PMS5003;64554;43.452;4.934;2022-11-03T09:22:47;5.80;4.80;2.00
69349;PMS5003;64554;43.452;4.934;2022-11-03T09:25:14;6.00;6.00;3.75
69349;PMS5003;64554;43.452;4.934;2022-11-03T09:27:40;5.60;4.00;2.60
69349;PMS5003;64554;43.452;4.934;2022-11-03T09:30:07;6.40;5.00;3.00
69349;PMS5003;64554;43.452;4.934;2022-11-03T09:32:39;3.80;3.00;2.00
69349;PMS5003;64554;43.452;4.934;2022-11-03T09:35:06;5.00;4.00;3.00
69349;PMS5003;64554;43.452;4.934;2022-11-03T09:37:34;6.00;6.00;3.80
69349;PMS5003;64554;43.452;4.934;2022-11-03T09:40:02;7.00;5.00;3.00
69349;PMS5003;64554;43.452;4.934;2022-11-03T09:42:30;5.50;5.50;4.00
69349;PMS5003;64554;43.452;4.934;2022-11-03T09:44:57;7.00;5.75;3.00
69349;PMS5003;64554;43.452;4.934;2022-11-03T09:47:25;5.00;5.00;3.00
69349;PMS5003;64554;43.452;4.934;2022-11-03T09:49:53;5.00;5.00;3.00
69349;PMS5003;64554;43.452;4.934;2022-11-03T09:52:20;7.80;7.20;4.20
69349;PMS5003;64554;43.452;4.934;2022-11-03T09:54:48;5.00;5.00;4.00
69349;PMS5003;64554;43.452;4.934;2022-11-03T09:57:14;5.20;4.20;3.00
69349;PMS5003;64554;43.452;4.934;2022-11-03T09:59:46;5.00;4.00;3.00
69349;PMS5003;64554;43.452;4.934;2022-11-03T10:02:27;5.00;4.00;3.00
69349;PMS5003;64554;43.452;4.934;2022-11-03T10:04:55;7.00;6.00;4.00
69349;PMS5003;64554;43.452;4.934;2022-11-03T10:07:25;3.67;3.67;2.00
69349;PMS5003;64554;43.452;4.934;2022-11-03T10:09:52;5.50;4.00;2.50
69349;PMS5003;64554;43.452;4.934;2022-11-03T10:12:20;5.80;3.80;2.80
69349;PMS5003;64554;43.452;4.934;2022-11-03T10:14:47;3.00;3.00;1.00
69349;PMS5003;64554;43.452;4.934;2022-11-03T10:17:18;5.00;4.40;3.60
69349;PMS5003;64554;43.452;4.934;2022-11-03T10:19:46;3.00;3.00;2.00
69349;PMS5003;64554;43.452;4.934;2022-11-03T10:22:14;7.75;5.25;3.75
69349;PMS5003;64554;43.452;4.934;2022-11-03T10:24:40;6.00;5.00;3.00
69349;PMS5003;64554;43.452;4.934;2022-11-03T10:27:24;3.25;3.25;2.50
69349;PMS5003;64554;43.452;4.934;2022-11-03T10:30:04;3.75;3.75;3.00
69349;PMS5003;64554;43.452;4.934;2022-11-03T10:32:36;6.00;4.00;3.00
69349;PMS5003;64554;43.452;4.934;2022-11-03T10:35:49;8.00;5.00;4.00
69349;PMS5003;64554;43.452;4.934;2022-11-03T10:37:50;4.00;3.40;2.40
69349;PMS5003;64554;43.452;4.934;2022-11-03T10:40:32;6.80;6.00;4.00
69349;PMS5003;64554;43.452;4.934;2022-11-03T10:43:14;11.67;11.33;5.00
69349;PMS5003;64554;43.452;4.934;2022-11-03T10:45:40;10.60;9.40;4.00
69349;PMS5003;64554;43.452;4.934;2022-11-03T10:48:08;7.00;6.60;4.00
69349;PMS5003;64554;43.452;4.934;2022-11-03T10:50:35;9.00;6.00;2.50
69349;PMS5003;64554;43.452;4.934;2022-11-03T10:53:04;5.40;5.40;3.40
69349;PMS5003;64554;43.452;4.934;2022-11-03T10:55:32;5.00;5.00;3.00
69349;PMS5003;64554;43.452;4.934;2022-11-03T10:57:58;5.00;5.00;2.00
69349;PMS5003;64554;43.452;4.934;2022-11-03T11:00:25;8.40;6.00;4.00
69349;PMS5003;64554;43.452;4.934;2022-11-03T11:02:53;6.40;6.00;4.00
69349;PMS5003;64554;43.452;4.934;2022-11-03T11:05:23;9.00;8.00;4.40
69349;PMS5003;64554;43.452;4.934;2022-11-03T11:07:50;4.75;4.75;4.00
69349;PMS5003;64554;43.452;4.934;2022-11-03T11:10:23;6.60;4.60;3.60
69349;PMS5003;64554;43.452;4.934;2022-11-03T11:18:06;6.40;5.40;3.40
69349;PMS5003;64554;43.452;4.934;2022-11-03T11:26:10;7.20;7.20;3.60
69349;PMS5003;64554;43.452;4.934;2022-11-03T11:28:40;4.00;4.00;3.00
69349;PMS5003;64554;43.452;4.934;2022-11-03T11:36:48;6.00;6.00;3.00
69349;PMS5003;64554;43.452;4.934;2022-11-03T11:42:17;6.60;6.60;4.00
69349;PMS5003;64554;43.452;4.934;2022-11-03T11:44:55;6.25;6.25;4.00
69349;PMS5003;64554;43.452;4.934;2022-11-03T11:47:27;7.00;5.75;4.00
69349;PMS5003;64554;43.452;4.934;2022-11-03T11:55:03;10.60;7.80;5.00
69349;PMS5003;64554;43.452;4.934;2022-11-03T11:57:31;10.50;8.50;5.00
69349;PMS5003;64554;43.452;4.934;2022-11-03T11:59:59;5.40;5.40;3.40
69349;PMS5003;64554;43.452;4.934;2022-11-03T12:02:28;9.20;7.00;4.00
69349;PMS5003;64554;43.452;4.934;2022-11-03T12:04:58;10.60;8.60;4.60
69349;PMS5003;64554;43.452;4.934;2022-11-03T12:07:34;6.00;4.00;2.50
69349;PMS5003;64554;43.452;4.934;2022-11-03T12:10:22;8.80;7.00;4.80
69349;PMS5003;64554;43.452;4.934;2022-11-03T12:12:51;10.50;10.00;6.00
69349;PMS5003;64554;43.452;4.934;2022-11-03T12:21:09;6.75;6.75;3.50
69349;PMS5003;64554;43.452;4.934;2022-11-03T12:23:46;7.60;7.00;1.40
69349;PMS5003;64554;43.452;4.934;2022-11-03T12:28:44;8.60;6.00;3.00
69349;PMS5003;64554;43.452;4.934;2022-11-03T12:31:11;11.20;9.40;3.20
69349;PMS5003;64554;43.452;4.934;2022-11-03T12:33:38;11.00;10.00;4.00
69349;PMS5003;64554;43.452;4.934;2022-11-03T12:36:04;9.00;8.00;5.00
69349;PMS5003;64554;43.452;4.934;2022-11-03T12:38:31;10.75;10.00;5.00
69349;PMS5003;64554;43.452;4.934;2022-11-03T12:40:57;10.50;9.00;5.50
69349;PMS5003;64554;43.452;4.934;2022-11-03T12:43:44;12.50;10.50;5.25
69349;PMS5003;64554;43.452;4.934;2022-11-03T12:46:11;11.40;9.40;7.00
69349;PMS5003;64554;43.452;4.934;2022-11-03T12:48:37;8.75;8.75;5.75
69349;PMS5003;64554;43.452;4.934;2022-11-03T12:51:19;9.20;8.20;5.80
69349;PMS5003;64554;43.452;4.934;2022-11-03T12:53:46;17.40;12.00;7.80
69349;PMS5003;64554;43.452;4.934;2022-11-03T12:56:13;11.00;8.00;6.00
69349;PMS5003;64554;43.452;4.934;2022-11-03T12:58:41;18.20;14.20;6.20
69349;PMS5003;64554;43.452;4.934;2022-11-03T13:01:09;17.00;12.00;6.00
69349;PMS5003;64554;43.452;4.934;2022-11-03T13:03:35;13.40;10.40;6.60
69349;PMS5003;64554;43.452;4.934;2022-11-03T13:06:03;10.00;8.00;5.00
69349;PMS5003;64554;43.452;4.934;2022-11-03T13:08:30;19.00;12.40;7.00
69349;PMS5003;64554;43.452;4.934;2022-11-03T13:10:57;15.80;11.80;6.40
69349;PMS5003;64554;43.452;4.934;2022-11-03T13:13:24;16.40;12.00;6.40
69349;PMS5003;64554;43.452;4.934;2022-11-03T13:15:50;13.75;13.75;7.75
69349;PMS5003;64554;43.452;4.934;2022-11-03T13:18:18;12.20;12.20;7.20
69349;PMS5003;64554;43.452;4.934;2022-11-03T13:20:46;13.00;10.50;7.00
69349;PMS5003;64554;43.452;4.934;2022-11-03T13:23:13;21.00;15.60;8.00
69349;PMS5003;64554;43.452;4.934;2022-11-03T13:25:45;14.50;12.50;7.50
69349;PMS5003;64554;43.452;4.934;2022-11-03T13:28:12;14.60;12.80;7.60
69349;PMS5003;64554;43.452;4.934;2022-11-03T13:30:38;16.00;11.00;7.00
69349;PMS5003;64554;43.452;4.934;2022-11-03T13:33:06;17.50;15.00;10.00
69349;PMS5003;64554;43.452;4.934;2022-11-03T13:35:33;15.00;12.40;9.00
69349;PMS5003;64554;43.452;4.934;2022-11-03T13:38:00;18.60;14.00;8.00
69349;PMS5003;64554;43.452;4.934;2022-11-03T13:40:26;19.25;15.00;6.00
69349;PMS5003;64554;43.452;4.934;2022-11-03T13:43:12;20.00;15.00;9.00
69349;PMS5003;64554;43.452;4.934;2022-11-03T13:45:39;21.20;17.20;8.20
69349;PMS5003;64554;43.452;4.934;2022-11-03T13:48:07;27.40;20.00;9.80
69349;PMS5003;64554;43.452;4.934;2022-11-03T13:50:53;18.80;17.20;9.80
69349;PMS5003;64554;43.452;4.934;2022-11-03T13:53:26;21.80;17.60;9.00
69349;PMS5003;64554;43.452;4.934;2022-11-03T14:02:41;16.20;15.00;9.20
69349;PMS5003;64554;43.452;4.934;2022-11-03T14:05:28;19.00;15.00;10.00
69349;PMS5003;64554;43.452;4.934;2022-11-03T14:07:55;19.50;15.50;9.00
69349;PMS5003;64554;43.452;4.934;2022-11-03T14:10:21;17.20;17.20;9.00
69349;PMS5003;64554;43.452;4.934;2022-11-03T14:12:47;24.00;16.50;8.50
69349;PMS5003;64554;43.452;4.934;2022-11-03T14:15:14;18.60;18.60;12.60
69349;PMS5003;64554;43.452;4.934;2022-11-03T14:17:40;31.50;28.50;14.75
69349;PMS5003;64554;43.452;4.934;2022-11-03T14:20:07;34.00;30.00;16.60
69349;PMS5003;64554;43.452;4.934;2022-11-03T14:22:35;30.40;29.00;18.00
69349;PMS5003;64554;43.452;4.934;2022-11-03T14:25:02;29.00;23.60;14.60
69349;PMS5003;64554;43.452;4.934;2022-11-03T14:27:29;26.25;26.25;16.25
69349;PMS5003;64554;43.452;4.934;2022-11-03T14:29:55;33.60;31.40;17.40
69349;PMS5003;64554;43.452;4.934;2022-11-03T14:32:22;33.25;32.00;17.00
69349;PMS5003;64554;43.452;4.934;2022-11-03T14:34:48;30.50;29.75;17.00
69349;PMS5003;64554;43.452;4.934;2022-11-03T14:37:14;38.75;31.00;16.00
69349;PMS5003;64554;43.452;4.934;2022-11-03T14:39:41;34.40;29.80;17.20
69349;PMS5003;64554;43.452;4.934;2022-11-03T14:42:11;32.00;29.00;14.00
69349;PMS5003;64554;43.452;4.934;2022-11-03T14:44:41;26.50;24.25;17.25
69349;PMS5003;64554;43.452;4.934;2022-11-03T14:47:10;35.00;30.00;17.25
69349;PMS5003;64554;43.452;4.934;2022-11-03T14:49:36;39.25;31.25;17.25
69349;PMS5003;64554;43.452;4.934;2022-11-03T14:52:04;36.80;32.00;19.80
69349;PMS5003;64554;43.452;4.934;2022-11-03T14:54:32;35.20;30.20;18.00
69349;PMS5003;64554;43.452;4.934;2022-11-03T14:56:59;39.00;31.00;17.00
69349;PMS5003;64554;43.452;4.934;2022-11-03T14:59:25;38.00;30.33;18.33
69349;PMS5003;64554;43.452;4.934;2022-11-03T15:01:52;41.50;32.00;19.50
69349;PMS5003;64554;43.452;4.934;2022-11-03T15:04:19;40.50;32.00;17.75
69349;PMS5003;64554;43.452;4.934;2022-11-03T15:06:46;33.80;29.80;17.80
69349;PMS5003;64554;43.452;4.934;2022-11-03T15:09:13;34.75;30.50;18.00
69349;PMS5003;64554;43.452;4.934;2022-11-03T15:11:40;35.50;28.50;18.50
69349;PMS5003;64554;43.452;4.934;2022-11-03T15:14:07;33.50;28.00;17.50
69349;PMS5003;64554;43.452;4.934;2022-11-03T15:16:33;35.00;31.00;17.00
69349;PMS5003;64554;43.452;4.934;2022-11-03T15:19:02;27.00;27.00;16.00
69349;PMS5003;64554;43.452;4.934;2022-11-03T15:21:29;35.00;29.60;17.00
69349;PMS5003;64554;43.452;4.934;2022-11-03T15:23:55;34.00;30.25;16.00
69349;PMS5003;64554;43.452;4.934;2022-11-03T15:26:42;32.00;29.40;19.00
69349;PMS5003;64554;43.452;4.934;2022-11-03T15:29:08;28.60;28.60;18.00